createdAt,value
2022-08-09T00:01:54.093Z,99701.47
2022-08-09T00:04:34.624Z,99689.19
2022-08-09T00:07:03.908Z,99689.19
2022-08-09T00:09:39.039Z,99696.97
2022-08-09T00:12:07.996Z,99705.59
2022-08-09T00:14:38.221Z,99687.00
2022-08-09T00:17:08.720Z,99697.03
2022-08-09T00:19:56.600Z,99696.09
2022-08-09T00:22:25.733Z,99688.59
2022-08-09T00:25:04.031Z,99682.28
2022-08-09T00:27:43.076Z,99701.78
2022-08-09T00:30:25.061Z,99685.72
2022-08-09T00:32:56.044Z,99692.69
2022-08-09T00:35:26.124Z,99705.34
2022-08-09T00:37:57.653Z,99711.78
2022-08-09T00:40:30.096Z,99706.75
2022-08-09T00:44:10.787Z,99711.47
2022-08-09T00:45:50.536Z,99707.69
2022-08-09T00:48:23.670Z,99706.78
2022-08-09T00:50:53.714Z,99699.81
2022-08-09T00:53:24.014Z,99711.81
2022-08-09T00:56:04.547Z,99713.78
2022-08-09T00:58:35.963Z,99715.84
2022-08-09T01:01:09.102Z,99716.97
2022-08-09T01:03:51.863Z,99705.47
2022-08-09T01:06:53.221Z,99695.41
2022-08-09T01:09:23.860Z,99705.28
2022-08-09T01:11:56.919Z,99711.31
2022-08-09T01:14:29.984Z,99698.38
2022-08-09T01:17:02.868Z,99714.19
2022-08-09T01:19:57.034Z,99708.53
2022-08-09T01:24:02.809Z,99715.72
2022-08-09T01:26:21.530Z,99701.66
2022-08-09T01:28:56.292Z,99709.72
2022-08-09T01:32:39.057Z,99707.25
2022-08-09T01:34:18.363Z,99715.69
2022-08-09T01:36:49.415Z,99715.69
2022-08-09T01:39:18.257Z,99698.63
2022-08-09T01:41:56.137Z,99692.88
2022-08-09T01:44:31.773Z,99707.94
2022-08-09T01:47:01.515Z,99721.19
2022-08-09T01:49:31.984Z,99715.41
2022-08-09T01:52:10.522Z,99705.22
2022-08-09T01:54:42.248Z,99701.81
2022-08-09T01:57:14.748Z,99723.38
2022-08-09T01:59:51.839Z,99706.00
2022-08-09T02:02:21.854Z,99713.53
2022-08-09T02:04:51.031Z,99730.94
2022-08-09T02:08:38.991Z,99722.06
2022-08-09T02:10:12.679Z,99720.78
2022-08-09T02:12:40.323Z,99733.31
2022-08-09T02:15:11.942Z,99722.00
2022-08-09T02:18:01.066Z,99716.84
2022-08-09T02:20:35.108Z,99716.66
2022-08-09T02:23:07.174Z,99722.03
2022-08-09T02:25:42.318Z,99701.09
2022-08-09T02:28:17.752Z,99720.25
2022-08-09T02:30:49.465Z,99716.94
2022-08-09T02:33:23.104Z,99700.69
2022-08-09T02:36:10.549Z,99714.03
2022-08-09T02:38:47.485Z,99693.53
2022-08-09T02:41:17.824Z,99707.28
2022-08-09T02:43:55.158Z,99692.53
2022-08-09T02:46:27.377Z,99699.06
2022-08-09T02:48:57.339Z,99690.38
2022-08-09T02:51:26.523Z,99699.22
2022-08-09T02:54:00.327Z,99699.88
2022-08-09T02:56:29.485Z,99710.56
2022-08-09T02:58:58.030Z,99717.31
2022-08-09T03:01:29.496Z,99711.53
2022-08-09T03:04:19.413Z,99721.81
2022-08-09T03:06:54.337Z,99717.50
2022-08-09T03:09:33.459Z,99721.03
2022-08-09T03:12:05.642Z,99727.81
2022-08-09T03:14:38.704Z,99721.63
2022-08-09T03:17:20.465Z,99720.00
2022-08-09T03:20:02.774Z,99726.53
2022-08-09T03:22:41.789Z,99712.84
2022-08-09T03:25:26.544Z,99714.31
2022-08-09T03:28:02.919Z,99712.72
2022-08-09T03:30:36.544Z,99715.09
2022-08-09T03:33:17.428Z,99717.75
2022-08-09T03:36:13.570Z,99698.94
2022-08-09T03:38:42.873Z,99708.88
2022-08-09T03:41:14.681Z,99723.88
2022-08-09T03:43:43.018Z,99704.22
2022-08-09T03:46:31.238Z,99722.72
2022-08-09T03:49:04.368Z,99709.59
2022-08-09T03:51:56.288Z,99704.22
2022-08-09T03:54:29.306Z,99706.28
2022-08-09T03:56:59.874Z,99704.72
2022-08-09T03:59:53.514Z,99726.94
2022-08-09T04:02:26.165Z,99733.59
2022-08-09T04:04:58.672Z,99716.38
2022-08-09T04:07:33.654Z,99713.16
2022-08-09T04:10:15.550Z,99723.66
2022-08-09T04:12:49.867Z,99731.75
2022-08-09T04:15:42.648Z,99733.91
2022-08-09T04:18:08.682Z,99715.94
2022-08-09T04:20:38.191Z,99729.28
2022-08-09T04:23:09.971Z,99730.72
2022-08-09T04:25:38.430Z,99727.63
2022-08-09T04:28:07.106Z,99739.72
2022-08-09T04:30:34.924Z,99743.22
2022-08-09T04:33:03.141Z,99746.06
2022-08-09T04:35:32.954Z,99758.06
2022-08-09T04:38:03.633Z,99760.63
2022-08-09T04:40:46.139Z,99750.31
2022-08-09T04:43:14.223Z,99754.16
2022-08-09T04:45:53.830Z,99760.34
2022-08-09T04:48:23.799Z,99762.91
2022-08-09T04:51:01.150Z,99755.44
2022-08-09T04:53:31.518Z,99767.19
2022-08-09T04:56:00.463Z,99753.03
2022-08-09T04:58:29.751Z,99752.94
2022-08-09T05:00:59.591Z,99750.03
2022-08-09T05:03:41.086Z,99766.00
2022-08-09T05:06:11.898Z,99764.63
2022-08-09T05:08:51.156Z,99771.91
2022-08-09T05:11:19.012Z,99771.50
2022-08-09T05:13:48.962Z,99777.91
2022-08-09T05:16:16.906Z,99771.69
2022-08-09T05:18:57.730Z,99781.84
2022-08-09T05:21:29.827Z,99780.53
2022-08-09T05:24:02.493Z,99785.13
2022-08-09T05:26:36.990Z,99793.16
2022-08-09T05:29:17.250Z,99779.22
2022-08-09T05:31:56.845Z,99785.63
2022-08-09T05:34:30.023Z,99782.97
2022-08-09T05:37:01.688Z,99779.88
2022-08-09T05:39:36.157Z,99775.44
2022-08-09T05:42:17.812Z,99779.97
2022-08-09T05:44:51.321Z,99773.72
2022-08-09T05:47:21.558Z,99764.81
2022-08-09T05:50:23.257Z,99781.78
2022-08-09T05:52:39.207Z,99781.44
2022-08-09T05:55:18.173Z,99781.84
2022-08-09T05:57:50.903Z,99787.03
2022-08-09T06:00:25.953Z,99785.19
2022-08-09T06:02:56.949Z,99790.66
2022-08-09T06:05:30.925Z,99773.88
2022-08-09T06:08:13.528Z,99785.44
2022-08-09T06:10:49.829Z,99781.47
2022-08-09T06:13:20.526Z,99781.75
2022-08-09T06:15:51.763Z,99786.25
2022-08-09T06:18:23.833Z,99788.06
2022-08-09T06:20:56.465Z,99780.72
2022-08-09T06:23:55.406Z,99798.63
2022-08-09T06:26:20.379Z,99791.31
2022-08-09T06:28:50.175Z,99788.50
2022-08-09T06:31:30.594Z,99790.91
2022-08-09T06:33:59.851Z,99786.59
2022-08-09T06:36:29.748Z,99779.84
2022-08-09T06:38:58.652Z,99789.28
2022-08-09T06:41:57.499Z,99793.94
2022-08-09T06:44:21.548Z,99790.72
2022-08-09T06:46:55.478Z,99777.44
2022-08-09T06:49:44.558Z,99799.84
2022-08-09T06:52:15.955Z,99801.13
2022-08-09T06:54:44.184Z,99798.81
2022-08-09T06:58:01.157Z,99806.78
2022-08-09T07:00:51.174Z,99792.25
2022-08-09T07:03:11.390Z,99805.47
2022-08-09T07:05:58.199Z,99810.81
2022-08-09T07:09:00.746Z,99802.16
2022-08-09T07:11:34.241Z,99813.16
2022-08-09T07:14:18.200Z,99811.38
2022-08-09T07:16:58.544Z,99814.03
2022-08-09T07:19:27.327Z,99818.69
2022-08-09T07:21:57.929Z,99817.16
2022-08-09T07:24:32.520Z,99819.41
2022-08-09T07:27:11.096Z,99826.38
2022-08-09T07:29:58.620Z,99821.25
2022-08-09T07:32:32.495Z,99819.81
2022-08-09T07:35:11.484Z,99826.34
2022-08-09T07:37:43.671Z,99826.06
2022-08-09T07:40:18.701Z,99825.47
2022-08-09T07:42:50.299Z,99827.41
2022-08-09T07:45:39.882Z,99823.41
2022-08-09T07:48:28.731Z,99820.16
2022-08-09T07:51:09.395Z,99827.69
2022-08-09T07:54:05.957Z,99846.09
2022-08-09T07:56:34.437Z,99830.63
2022-08-09T07:59:12.473Z,99832.34
2022-08-09T08:01:52.864Z,99830.72
2022-08-09T08:04:25.507Z,99835.19
2022-08-09T08:07:00.186Z,99838.34
2022-08-09T08:09:42.577Z,99850.09
2022-08-09T08:12:36.468Z,99835.03
2022-08-09T08:15:02.258Z,99833.44
2022-08-09T08:17:52.023Z,99836.94
2022-08-09T08:20:19.762Z,99838.75
2022-08-09T08:22:58.725Z,99846.50
2022-08-09T08:25:44.338Z,99848.97
2022-08-09T08:28:15.340Z,99833.47
2022-08-09T08:30:44.029Z,99853.59
2022-08-09T08:36:12.123Z,99853.66
2022-08-09T08:38:56.613Z,99853.78
2022-08-09T08:41:30.809Z,99851.50
2022-08-09T08:44:14.551Z,99855.06
2022-08-09T08:47:03.364Z,99847.53
2022-08-09T08:49:46.465Z,99848.56
2022-08-09T08:52:48.639Z,99849.03
2022-08-09T08:55:10.224Z,99853.81
2022-08-09T08:57:39.336Z,99845.78
2022-08-09T09:00:20.273Z,99847.66
2022-08-09T09:03:08.241Z,99847.84
2022-08-09T09:06:00.586Z,99848.94
2022-08-09T09:08:40.641Z,99833.34
2022-08-09T09:11:17.700Z,99843.47
2022-08-09T09:13:57.207Z,99838.94
2022-08-09T09:16:30.836Z,99843.59
2022-08-09T09:22:14.080Z,99836.28
2022-08-09T09:24:46.231Z,99829.47
2022-08-09T09:28:03.058Z,99830.47
2022-08-09T09:30:28.867Z,99844.44
2022-08-09T09:33:15.625Z,99839.06
2022-08-09T09:36:01.637Z,99827.97
2022-08-09T09:38:43.704Z,99837.38
2022-08-09T09:41:12.833Z,99837.03
2022-08-09T09:44:12.266Z,99827.84
2022-08-09T09:46:50.866Z,99827.72
2022-08-09T09:49:23.572Z,99832.75
2022-08-09T09:52:16.746Z,99829.53
2022-08-09T09:55:16.165Z,99831.06
2022-08-09T09:58:04.269Z,99828.97
2022-08-09T10:00:55.124Z,99828.34
2022-08-09T10:03:43.841Z,99822.19
2022-08-09T10:06:12.917Z,99839.34
2022-08-09T10:08:43.301Z,99826.47
2022-08-09T10:12:00.376Z,99828.25
2022-08-09T10:14:27.489Z,99825.59
2022-08-09T10:17:23.902Z,99829.78
2022-08-09T10:19:52.841Z,99830.09
2022-08-09T10:22:32.683Z,99831.38
2022-08-09T10:25:03.438Z,99827.34
2022-08-09T10:27:45.232Z,99821.69
2022-08-09T10:32:15.235Z,99822.16
2022-08-09T10:34:04.327Z,99822.63
2022-08-09T10:36:04.884Z,99819.78
2022-08-09T10:38:55.489Z,99832.50
2022-08-09T10:41:21.726Z,99827.94
2022-08-09T10:43:59.500Z,99822.28
2022-08-09T10:47:00.439Z,99820.47
2022-08-09T10:49:42.485Z,99805.47
2022-08-09T10:52:31.423Z,99822.97
2022-08-09T10:55:04.986Z,99813.38
2022-08-09T10:57:37.871Z,99814.72
2022-08-09T11:00:34.640Z,99806.75
2022-08-09T11:03:19.601Z,99810.25
2022-08-09T11:06:18.745Z,99805.13
2022-08-09T11:08:51.281Z,99801.66
2022-08-09T11:11:22.990Z,99794.41
2022-08-09T11:14:28.321Z,99797.63
2022-08-09T11:16:58.122Z,99810.38
2022-08-09T11:20:10.754Z,99811.38
2022-08-09T11:23:02.873Z,99816.72
2022-08-09T11:25:50.113Z,99811.41
2022-08-09T11:28:56.664Z,99805.06
2022-08-09T11:31:49.264Z,99803.25
2022-08-09T11:34:33.272Z,99802.47
2022-08-09T11:37:07.191Z,99781.34
2022-08-09T11:40:06.712Z,99795.91
2022-08-09T11:42:40.896Z,99777.72
2022-08-09T11:45:21.884Z,99794.03
2022-08-09T11:47:51.216Z,99788.91
2022-08-09T11:50:55.856Z,99787.22
2022-08-09T11:53:59.238Z,99795.25
2022-08-09T11:56:42.209Z,99795.28
2022-08-09T11:59:29.824Z,99797.63
2022-08-09T12:02:17.502Z,99793.22
2022-08-09T12:04:58.226Z,99787.88
2022-08-09T12:07:29.141Z,99791.03
2022-08-09T12:10:32.125Z,99778.53
2022-08-09T12:13:03.483Z,99777.66
2022-08-09T12:15:48.652Z,99781.16
2022-08-09T12:18:29.838Z,99775.88
2022-08-09T12:20:59.215Z,99782.78
2022-08-09T12:23:56.141Z,99785.44
2022-08-09T12:26:19.859Z,99782.56
2022-08-09T12:29:14.151Z,99775.78
2022-08-09T12:32:02.139Z,99780.34
2022-08-09T12:34:36.641Z,99777.94
2022-08-09T12:37:22.299Z,99778.38
2022-08-09T12:40:02.917Z,99775.97
2022-08-09T12:42:33.833Z,99779.59
2022-08-09T12:45:32.089Z,99765.28
2022-08-09T12:47:53.053Z,99764.59
2022-08-09T12:50:23.548Z,99770.69
2022-08-09T12:53:09.627Z,99764.63
2022-08-09T12:56:14.198Z,99766.25
2022-08-09T12:58:29.151Z,99763.78
2022-08-09T13:00:58.905Z,99770.31
2022-08-09T13:03:58.493Z,99760.59
2022-08-09T13:06:26.108Z,99759.31
2022-08-09T13:09:06.579Z,99755.75
2022-08-09T13:11:39.195Z,99752.53
2022-08-09T13:14:41.145Z,99749.75
2022-08-09T13:17:02.204Z,99755.47
2022-08-09T13:20:09.040Z,99760.59
2022-08-09T13:22:36.587Z,99758.38
2022-08-09T13:25:07.487Z,99751.78
2022-08-09T13:27:40.128Z,99754.13
2022-08-09T13:30:50.934Z,99750.25
2022-08-09T13:33:17.319Z,99749.25
2022-08-09T13:36:38.129Z,99747.50
2022-08-09T13:38:57.608Z,99760.28
2022-08-09T13:41:54.535Z,99744.34
2022-08-09T13:44:17.113Z,99738.56
2022-08-09T13:47:29.188Z,99743.53
2022-08-09T13:49:55.723Z,99743.66
2022-08-09T13:52:26.298Z,99740.53
2022-08-09T13:55:00.682Z,99745.06
2022-08-09T13:57:39.815Z,99739.00
2022-08-09T14:00:15.562Z,99743.88
2022-08-09T14:03:03.093Z,99747.22
2022-08-09T14:05:57.161Z,99744.44
2022-08-09T14:08:26.942Z,99756.97
2022-08-09T14:10:56.858Z,99739.19
2022-08-09T14:14:14.918Z,99747.25
2022-08-09T14:16:17.555Z,99734.69
2022-08-09T14:18:50.630Z,99751.53
2022-08-09T14:21:24.489Z,99751.91
2022-08-09T14:24:10.091Z,99742.47
2022-08-09T14:26:41.744Z,99751.75
2022-08-09T14:30:03.904Z,99735.72
2022-08-09T14:32:13.399Z,99743.59
2022-08-09T14:34:45.200Z,99750.25
2022-08-09T14:37:16.605Z,99730.13
2022-08-09T14:39:48.618Z,99731.88
2022-08-09T14:42:32.121Z,99724.56
2022-08-09T14:46:39.057Z,99730.25
2022-08-09T14:47:57.861Z,99726.16
2022-08-09T14:50:31.183Z,99729.28
2022-08-09T14:53:01.625Z,99720.91
2022-08-09T14:55:32.062Z,99729.84
2022-08-09T14:58:01.037Z,99734.31
2022-08-09T15:00:31.612Z,99731.91
2022-08-09T15:03:00.294Z,99727.78
2022-08-09T15:05:29.593Z,99718.06
2022-08-09T15:07:58.518Z,99736.75
2022-08-09T15:10:31.601Z,99730.66
2022-08-09T15:13:03.755Z,99739.97
2022-08-09T15:15:39.527Z,99737.50
2022-08-09T15:18:12.406Z,99723.72
2022-08-09T15:21:58.457Z,99720.34
2022-08-09T15:24:00.873Z,99729.94
2022-08-09T15:26:31.465Z,99734.25
2022-08-09T15:31:47.407Z,99735.16
2022-08-09T15:34:32.372Z,99734.53
2022-08-09T15:37:04.190Z,99729.75
2022-08-09T15:39:53.343Z,99744.25
2022-08-09T15:42:24.984Z,99740.47
2022-08-09T15:44:53.134Z,99729.03
2022-08-09T15:47:32.826Z,99740.66
2022-08-09T15:50:14.971Z,99740.25
2022-08-09T15:52:54.914Z,99743.84
2022-08-09T15:55:34.560Z,99739.34
2022-08-09T15:58:30.797Z,99724.09
2022-08-09T16:01:05.388Z,99731.38
2022-08-09T16:03:38.796Z,99738.94
2022-08-09T16:06:27.396Z,99730.69
2022-08-09T16:09:00.913Z,99726.03
2022-08-09T16:11:30.956Z,99730.22
2022-08-09T16:14:08.068Z,99719.75
2022-08-09T16:16:38.010Z,99716.28
2022-08-09T16:19:07.674Z,99734.47
2022-08-09T16:21:36.991Z,99719.81
2022-08-09T16:24:05.507Z,99735.97
2022-08-09T16:26:41.206Z,99729.19
2022-08-09T16:29:13.038Z,99721.81
2022-08-09T16:32:17.854Z,99725.78
2022-08-09T16:34:44.761Z,99742.91
2022-08-09T16:37:55.956Z,99736.91
2022-08-09T16:40:29.727Z,99739.09
2022-08-09T16:43:06.187Z,99734.34
2022-08-09T16:45:41.589Z,99732.41
2022-08-09T16:48:37.913Z,99723.09
2022-08-09T16:51:08.394Z,99720.16
2022-08-09T16:54:02.484Z,99734.00
2022-08-09T16:56:30.504Z,99733.50
2022-08-09T16:58:59.560Z,99725.25
2022-08-09T17:01:33.809Z,99732.00
2022-08-09T17:04:02.159Z,99733.97
2022-08-09T17:06:47.373Z,99736.72
2022-08-09T17:09:43.893Z,99740.56
2022-08-09T17:12:09.525Z,99750.72
2022-08-09T17:14:37.469Z,99728.59
2022-08-09T17:17:13.021Z,99751.97
2022-08-09T17:20:33.065Z,99743.94
2022-08-09T17:22:51.768Z,99747.81
2022-08-09T17:25:22.340Z,99731.34
2022-08-09T17:27:54.428Z,99750.59
2022-08-09T17:30:25.519Z,99753.56
2022-08-09T17:32:57.443Z,99753.31
2022-08-09T17:35:29.040Z,99761.59
2022-08-09T17:38:02.199Z,99768.03
2022-08-09T17:40:41.163Z,99754.41
2022-08-09T17:43:32.196Z,99754.72
2022-08-09T17:46:03.256Z,99757.41
2022-08-09T17:48:35.026Z,99761.41
2022-08-09T17:51:17.635Z,99767.66
2022-08-09T17:53:51.953Z,99767.88
2022-08-09T17:56:27.054Z,99770.78
2022-08-09T17:58:59.719Z,99753.31
2022-08-09T18:01:58.115Z,99774.09
2022-08-09T18:04:17.722Z,99768.28
2022-08-09T18:06:54.235Z,99774.50
2022-08-09T18:09:40.481Z,99777.78
2022-08-09T18:12:17.446Z,99778.97
2022-08-09T18:14:53.455Z,99777.63
2022-08-09T18:17:27.188Z,99779.28
2022-08-09T18:20:54.367Z,99785.91
2022-08-09T18:23:05.011Z,99788.94
2022-08-09T18:25:51.022Z,99794.47
2022-08-09T18:30:35.864Z,99797.09
2022-08-09T18:31:11.126Z,99770.81
2022-08-09T18:33:40.672Z,99793.91
2022-08-09T18:36:14.288Z,99792.72
2022-08-09T18:39:00.944Z,99798.97
2022-08-09T18:41:34.286Z,99804.22
2022-08-09T18:44:10.618Z,99807.47
2022-08-09T18:46:46.027Z,99806.94
2022-08-09T18:49:19.909Z,99806.41
2022-08-09T18:51:55.412Z,99817.75
2022-08-09T18:54:28.379Z,99819.56
2022-08-09T18:56:56.847Z,99810.31
2022-08-09T18:59:48.515Z,99813.75
2022-08-09T19:02:18.615Z,99824.59
2022-08-09T19:05:04.054Z,99810.03
2022-08-09T19:08:10.104Z,99801.53
2022-08-09T19:10:43.723Z,99814.63
2022-08-09T19:13:20.726Z,99825.63
2022-08-09T19:15:52.862Z,99822.72
2022-08-09T19:18:33.309Z,99821.78
2022-08-09T19:21:09.423Z,99821.78
2022-08-09T19:24:32.522Z,99824.59
2022-08-09T19:26:32.337Z,99817.81
2022-08-09T19:29:03.676Z,99821.25
2022-08-09T19:31:46.360Z,99818.31
2022-08-09T19:34:22.473Z,99833.94
2022-08-09T19:36:51.952Z,99812.84
2022-08-09T19:39:29.225Z,99812.13
2022-08-09T19:42:14.432Z,99823.53
2022-08-09T19:44:43.713Z,99820.69
2022-08-09T19:47:22.727Z,99817.47
2022-08-09T19:50:10.331Z,99820.53
2022-08-09T19:52:51.512Z,99821.00
2022-08-09T19:55:25.634Z,99815.84
2022-08-09T19:57:58.478Z,99828.59
2022-08-09T20:00:26.494Z,99814.41
2022-08-09T20:04:18.548Z,99809.41
2022-08-09T20:05:46.883Z,99831.78
2022-08-09T20:08:33.525Z,99828.00
2022-08-09T20:11:05.194Z,99827.84
2022-08-09T20:13:37.026Z,99822.66
2022-08-09T20:16:32.858Z,99831.91
2022-08-09T20:19:43.047Z,99822.25
2022-08-09T20:21:56.402Z,99827.25
2022-08-09T20:24:31.754Z,99821.00
2022-08-09T20:27:07.894Z,99826.88
2022-08-09T20:29:38.151Z,99822.19
2022-08-09T20:32:30.026Z,99829.16
2022-08-09T20:34:54.831Z,99830.16
2022-08-09T20:37:22.942Z,99831.09
2022-08-09T20:40:16.833Z,99822.59
2022-08-09T20:42:46.576Z,99837.22
2022-08-09T20:46:00.803Z,99834.97
2022-08-09T20:48:21.906Z,99820.41
2022-08-09T20:50:55.699Z,99822.22
2022-08-09T20:53:35.424Z,99795.31
2022-08-09T20:56:06.567Z,99819.91
2022-08-09T20:58:43.500Z,99821.06
2022-08-09T21:01:32.896Z,99812.84
2022-08-09T21:04:08.107Z,99814.66
2022-08-09T21:06:49.166Z,99799.56
2022-08-09T21:09:32.776Z,99825.00
2022-08-09T21:14:40.188Z,99822.69
2022-08-09T21:18:11.600Z,99828.75
2022-08-09T21:20:17.072Z,99822.53
2022-08-09T21:22:46.728Z,99821.03
2022-08-09T21:25:38.187Z,99821.88
2022-08-09T21:28:07.304Z,99824.31
2022-08-09T21:30:42.362Z,99825.63
2022-08-09T21:33:10.479Z,99813.16
2022-08-09T21:35:40.731Z,99824.66
2022-08-09T21:38:31.017Z,99819.75
2022-08-09T21:41:00.436Z,99828.22
2022-08-09T21:43:56.052Z,99819.38
2022-08-09T21:46:17.911Z,99822.66
2022-08-09T21:48:49.417Z,99828.78
2022-08-09T21:51:24.097Z,99834.69
2022-08-09T21:53:54.777Z,99829.97
2022-08-09T21:56:43.613Z,99820.81
2022-08-09T21:59:11.830Z,99836.53
2022-08-09T22:02:00.226Z,99808.63
2022-08-09T22:04:44.797Z,99803.41
2022-08-09T22:07:35.156Z,99823.59
2022-08-09T22:10:07.684Z,99820.63
2022-08-09T22:12:38.081Z,99830.94
2022-08-09T22:15:08.926Z,99819.59
2022-08-09T22:17:47.204Z,99825.91
2022-08-09T22:20:21.702Z,99818.19
2022-08-09T22:22:55.636Z,99825.00
2022-08-09T22:26:05.419Z,99808.59
2022-08-09T22:28:11.646Z,99828.59
2022-08-09T22:30:48.588Z,99839.47
2022-08-09T22:33:19.606Z,99831.06
2022-08-09T22:36:01.767Z,99819.03
2022-08-09T22:38:31.474Z,99810.53
2022-08-09T22:40:59.418Z,99826.63
2022-08-09T22:44:02.035Z,99830.13
2022-08-09T22:48:14.133Z,99825.50
2022-08-09T22:49:09.526Z,99816.25
2022-08-09T22:51:43.517Z,99815.84
2022-08-09T22:54:21.360Z,99807.69
2022-08-09T22:56:50.916Z,99825.78
2022-08-09T22:59:55.353Z,99821.09
2022-08-09T23:02:15.730Z,99814.81
2022-08-09T23:04:53.991Z,99814.38
2022-08-09T23:08:22.916Z,99805.34
2022-08-09T23:10:28.938Z,99812.44
2022-08-09T23:12:56.977Z,99806.75
2022-08-09T23:15:25.395Z,99807.97
2022-08-09T23:17:53.571Z,99806.06
2022-08-09T23:20:23.987Z,99811.13
2022-08-09T23:22:52.010Z,99815.66
2022-08-09T23:25:20.032Z,99811.94
2022-08-09T23:27:57.503Z,99807.81
2022-08-09T23:30:35.629Z,99809.34
2022-08-09T23:33:03.568Z,99818.75
2022-08-09T23:36:05.602Z,99814.44
2022-08-09T23:38:20.827Z,99819.25
2022-08-09T23:40:51.455Z,99798.34
2022-08-09T23:43:19.567Z,99820.34
2022-08-09T23:45:47.438Z,99808.06
2022-08-09T23:48:15.324Z,99802.44
2022-08-09T23:50:44.639Z,99800.38
2022-08-09T23:53:12.525Z,99801.81
2022-08-09T23:55:40.361Z,99813.28
2022-08-09T23:58:25.766Z,99808.53
